If you wish to contribute or participate in the discussions about articles you are invited to join SKYbrary as a registered user

 Actions

Misawa Airport

From SKYbrary Wiki

RJSM
Airport
ICAO: RJSM – IATA: MSJ
Summary
Name Misawa Airport
Region Asia and Pacific
Territory Japan JP.gif
Location Misawa, Aomori Prefecture
Serving Misawa
Elevation 36.271 m
119 ft36.271 m
Coordinates 40° 42' 15.34" N, 141° 22' 10.49" E
Runways
Designator Length Width Surface ROPS
10/28 3048 m10,000 ft
46 m150.919 ft
ASP yes/yes


METAR
Observation RJSM 102200Z 13004KT 090V170 9999 FEW005 SCT035 BKN220 14/12 Q1012
Station Misawa Ab
Date/Time 10 June 2019 22:00:00
Wind direction 130°
Wind speed 04 kts
Lowest cloud amount few clouds
Temperature 14°C
Dew point 12°C
Humidity 87%
QNH 1012 hPa
Weather condition n/a

Misawa Airport is an airport in Misawa, a city in the Aomori Prefecture of Japan. It shares facilities and airport codes with the Misawa Air Base.

Climatology

Humid Sub-tropical climate (Köppen climate classification Cfa)

Maps

Terrain

Loading map...

Airport Layout

Loading map...


Accidents & Serious Incidents at or in vicinity of RJSM

None on SKYbrary